Time;durP1;ratioP1;P1;durP2;ratioP2;P2;SDS_P1;SDS_P2;PMS_P1;PMS_P2;Temp;Humidity;BMP_temperature;BMP_pressure;BME280_temperature;BME280_humidity;BME280_pressure;Samples;Min_cycle;Max_cycle;Signal;HPM_P1;HPM_P2
2023/08/14 00:00:50;;;;;;;9.20;6.20;;;;;;;24.45;51.68;101694.94;5025429;28;20455;-33
2023/08/14 00:03:19;;;;;;;9.07;5.32;;;;;;;24.43;51.45;101691.53;5027311;28;20886;-33
2023/08/14 00:05:46;;;;;;;10.85;6.50;;;;;;;24.42;51.56;101692.56;5025531;28;20060;-33
2023/08/14 00:08:13;;;;;;;8.32;5.55;;;;;;;24.41;51.64;101685.47;5026866;28;20049;-33
2023/08/14 00:10:39;;;;;;;8.60;5.47;;;;;;;24.41;51.62;101688.19;5029012;28;20088;-33
2023/08/14 00:13:06;;;;;;;9.20;5.70;;;;;;;24.40;51.35;101686.47;5027066;28;20054;-33
2023/08/14 00:15:32;;;;;;;8.95;6.20;;;;;;;24.40;51.37;101691.88;5027978;28;20619;-33
2023/08/14 00:17:59;;;;;;;7.35;4.97;;;;;;;24.38;51.29;101678.53;5027036;28;20042;-33
2023/08/14 00:20:26;;;;;;;8.20;5.35;;;;;;;24.38;51.61;101688.53;5023956;28;20049;-33
2023/08/14 00:22:52;;;;;;;8.55;5.05;;;;;;;24.37;51.27;101678.69;5027974;28;20081;-33
2023/08/14 00:25:19;;;;;;;7.93;5.43;;;;;;;24.35;51.08;101678.84;5026580;28;20046;-33
2023/08/14 00:27:45;;;;;;;9.07;5.25;;;;;;;24.35;51.21;101686.97;5024634;28;20049;-33
2023/08/14 00:30:12;;;;;;;7.22;4.90;;;;;;;24.34;51.40;101681.75;5025765;28;20111;-33
2023/08/14 00:32:39;;;;;;;7.55;4.75;;;;;;;24.33;51.19;101675.47;5020538;28;20349;-33
2023/08/14 00:35:06;;;;;;;7.22;5.18;;;;;;;24.32;51.77;101668.38;5028105;28;20042;-33
2023/08/14 00:37:46;;;;;;;7.38;5.18;;;;;;;24.31;51.57;101672.09;5025742;28;20112;-33
2023/08/14 00:40:14;;;;;;;8.02;4.78;;;;;;;24.31;51.62;101671.25;5029466;28;20046;-33
2023/08/14 00:42:43;;;;;;;7.20;4.95;;;;;;;24.30;51.76;101664.97;5029234;28;20407;-33
2023/08/14 00:45:10;;;;;;;7.68;5.15;;;;;;;24.30;51.56;101666.84;5027218;28;20091;-33
2023/08/14 00:47:37;;;;;;;7.40;4.60;;;;;;;24.29;51.59;101673.31;5028093;28;20049;-33
2023/08/14 00:50:06;;;;;;;6.43;4.40;;;;;;;24.29;51.42;101662.47;5026230;28;20095;-33
2023/08/14 00:52:35;;;;;;;7.03;4.70;;;;;;;24.27;51.33;101659.06;5028350;28;20061;-33
2023/08/14 00:55:03;;;;;;;6.05;4.03;;;;;;;24.27;51.99;101659.06;5030149;28;20136;-33
2023/08/14 00:57:30;;;;;;;6.78;4.47;;;;;;;24.26;51.77;101660.94;5029290;28;20444;-33
2023/08/14 00:59:58;;;;;;;6.57;4.65;;;;;;;24.26;51.71;101660.09;5026644;28;20053;-33
2023/08/14 01:02:25;;;;;;;7.18;4.55;;;;;;;24.25;51.53;101659.25;5024334;28;20056;-33
2023/08/14 01:04:51;;;;;;;7.93;4.50;;;;;;;24.23;51.92;101657.72;5025932;28;20043;-33
2023/08/14 01:07:18;;;;;;;7.30;4.38;;;;;;;24.23;51.95;101658.56;5027831;28;20163;-33
2023/08/14 01:09:47;;;;;;;7.43;4.55;;;;;;;24.22;51.73;101662.31;5029278;28;20053;-34
2023/08/14 01:12:42;;;;;;;7.65;4.70;;;;;;;24.21;51.38;101660.63;5028016;28;20128;-33
2023/08/14 01:15:13;;;;;;;6.72;4.20;;;;;;;24.22;51.60;101656.03;5027219;28;20315;-33
2023/08/14 01:17:47;;;;;;;6.95;4.03;;;;;;;24.21;51.65;101659.78;5027168;28;20049;-33
2023/08/14 01:20:17;;;;;;;7.82;4.45;;;;;;;24.20;51.67;101664.38;5026691;28;20162;-33
2023/08/14 01:22:44;;;;;;;6.65;4.10;;;;;;;24.20;52.08;101655.34;5024615;28;20077;-33
2023/08/14 01:25:19;;;;;;;5.45;3.30;;;;;;;24.18;51.60;101652.84;5024021;28;20140;-33
2023/08/14 01:27:47;;;;;;;5.60;3.90;;;;;;;24.18;51.81;101652.84;5025711;28;20045;-33
2023/08/14 01:30:13;;;;;;;5.90;4.10;;;;;;;24.17;51.46;101642.19;5026908;28;20045;-33
2023/08/14 01:32:40;;;;;;;8.02;3.80;;;;;;;24.16;51.88;101646.75;5023595;28;20056;-33
2023/08/14 01:35:07;;;;;;;6.07;4.28;;;;;;;24.16;52.14;101637.78;5027946;28;20444;-33
2023/08/14 01:37:43;;;;;;;5.72;3.85;;;;;;;24.16;51.92;101637.78;5024950;28;20060;-33
2023/08/14 01:40:23;;;;;;;5.80;3.60;;;;;;;24.14;51.81;101640.66;5026431;28;20041;-33
2023/08/14 01:42:57;;;;;;;6.35;4.22;;;;;;;24.13;52.04;101626.28;5030098;28;20376;-33
2023/08/14 01:45:26;;;;;;;7.82;4.07;;;;;;;24.13;51.54;101631.69;5027739;28;20077;-33
2023/08/14 01:47:55;;;;;;;5.70;3.92;;;;;;;24.12;52.17;101624.59;5029882;28;20128;-33
2023/08/14 01:50:25;;;;;;;5.93;3.53;;;;;;;24.11;51.92;101622.88;5026912;28;20124;-33
2023/08/14 01:52:52;;;;;;;5.50;3.65;;;;;;;24.12;51.98;101621.03;5027169;28;20147;-33
2023/08/14 01:55:19;;;;;;;5.93;3.67;;;;;;;24.10;52.15;101610.38;5027896;28;20045;-33
2023/08/14 01:57:46;;;;;;;5.72;3.67;;;;;;;24.09;51.59;101611.41;5027646;28;20053;-33
2023/08/14 02:00:13;;;;;;;5.80;3.80;;;;;;;24.09;52.02;101605.97;5028225;28;20080;-33
2023/08/14 02:02:39;;;;;;;5.93;3.88;;;;;;;24.08;52.27;101608.84;5029393;28;20050;-33
2023/08/14 02:05:06;;;;;;;5.75;3.75;;;;;;;24.07;52.36;101608.00;5028282;28;20869;-33
2023/08/14 02:07:33;;;;;;;6.55;3.85;;;;;;;24.06;52.14;101609.03;5024117;28;20045;-33
2023/08/14 02:09:59;;;;;;;5.50;3.50;;;;;;;24.06;52.19;101602.78;5029889;28;20053;-33
2023/08/14 02:12:26;;;;;;;4.60;3.15;;;;;;;24.04;52.28;101599.38;5027196;28;20060;-33
2023/08/14 02:14:52;;;;;;;5.28;3.53;;;;;;;24.04;51.84;101588.56;5025889;28;20132;-33
2023/08/14 02:17:19;;;;;;;5.57;3.88;;;;;;;24.02;52.08;101591.44;5023118;28;20108;-33
2023/08/14 02:19:46;;;;;;;5.22;3.05;;;;;;;24.00;52.19;101582.66;5025066;28;20045;-33
2023/08/14 02:22:12;;;;;;;4.45;3.00;;;;;;;24.00;52.12;101582.66;5024280;28;20049;-33
2023/08/14 02:24:39;;;;;;;5.97;3.42;;;;;;;23.99;51.68;101575.53;5026806;28;20045;-33
2023/08/14 02:27:06;;;;;;;6.05;3.67;;;;;;;23.97;51.93;101577.59;5025934;28;20348;-33
2023/08/14 02:29:32;;;;;;;4.68;3.15;;;;;;;23.97;52.30;101583.00;5025192;28;20050;-33
2023/08/14 02:31:59;;;;;;;4.75;3.20;;;;;;;23.96;51.87;101580.47;5024484;28;20077;-33
2023/08/14 02:34:44;;;;;;;4.45;3.20;;;;;;;23.94;51.95;101579.81;5027945;28;20338;-33
2023/08/14 02:37:11;;;;;;;5.72;3.63;;;;;;;23.94;52.11;101574.38;5023992;28;20057;-33
2023/08/14 02:39:38;;;;;;;4.22;3.00;;;;;;;23.92;52.19;101569.16;5023940;28;20049;-33
2023/08/14 02:42:05;;;;;;;4.55;3.03;;;;;;;23.91;52.49;101570.16;5023537;28;20101;-33
2023/08/14 02:44:31;;;;;;;4.47;3.10;;;;;;;23.90;52.51;101576.59;5026612;28;20053;-33
2023/08/14 02:46:58;;;;;;;4.57;3.08;;;;;;;23.89;52.63;101578.47;5025558;28;20449;-33
2023/08/14 02:49:25;;;;;;;4.65;2.92;;;;;;;23.87;52.53;101579.66;5023527;28;20119;-33
2023/08/14 02:51:52;;;;;;;5.20;3.17;;;;;;;23.86;52.32;101578.81;5023898;28;20081;-33
2023/08/14 02:54:19;;;;;;;4.30;2.70;;;;;;;23.86;52.23;101581.50;5028291;28;20800;-33
2023/08/14 02:56:46;;;;;;;4.78;3.00;;;;;;;23.84;52.02;101588.13;5024476;28;20045;-33
2023/08/14 02:59:12;;;;;;;4.75;2.90;;;;;;;23.84;52.45;101578.16;5025142;28;20049;-33
2023/08/14 03:01:39;;;;;;;5.32;3.20;;;;;;;23.83;52.61;101581.84;5024523;28;20053;-33
2023/08/14 03:04:06;;;;;;;4.22;2.80;;;;;;;23.82;51.92;101582.03;5022996;28;20065;-33
2023/08/14 03:06:32;;;;;;;4.53;2.78;;;;;;;23.82;52.21;101579.34;5022238;28;20057;-33
2023/08/14 03:08:59;;;;;;;5.38;3.33;;;;;;;23.81;51.91;101583.06;5026168;28;20049;-33
2023/08/14 03:11:26;;;;;;;5.00;2.83;;;;;;;23.80;52.14;101586.78;5025411;28;20049;-33
2023/08/14 03:13:53;;;;;;;3.67;2.50;;;;;;;23.79;52.44;101583.22;5026214;28;20388;-33
2023/08/14 03:16:20;;;;;;;4.13;2.80;;;;;;;23.79;52.52;101591.34;5025203;28;20077;-33
2023/08/14 03:18:47;;;;;;;4.13;3.03;;;;;;;23.78;52.96;101588.81;5022145;28;20053;-33
2023/08/14 03:21:13;;;;;;;4.47;2.50;;;;;;;23.77;52.07;101595.25;5023554;28;20852;-33
2023/08/14 03:23:40;;;;;;;4.68;2.88;;;;;;;23.77;52.96;101595.25;5024768;28;20045;-33
2023/08/14 03:26:06;;;;;;;3.55;2.58;;;;;;;23.76;52.71;101591.72;5024149;28;20076;-33
2023/08/14 03:28:33;;;;;;;4.13;2.40;;;;;;;23.76;52.30;101590.84;5021016;28;20054;-33
2023/08/14 03:31:00;;;;;;;4.63;2.60;;;;;;;23.75;52.23;101594.56;5021595;28;20128;-33
2023/08/14 03:33:26;;;;;;;4.18;2.85;;;;;;;23.75;52.46;101589.16;5023260;28;20389;-33
2023/08/14 03:35:53;;;;;;;3.65;2.47;;;;;;;23.73;52.36;101592.06;5027733;28;20053;-33
2023/08/14 03:38:21;;;;;;;3.92;2.67;;;;;;;23.72;52.57;101582.25;5027968;28;20495;-33
2023/08/14 03:40:47;;;;;;;3.85;2.45;;;;;;;23.71;52.31;101583.25;5031550;28;20440;-33
2023/08/14 03:43:14;;;;;;;4.13;2.55;;;;;;;23.72;52.56;101587.66;5034103;28;20053;-33
2023/08/14 03:45:40;;;;;;;3.97;2.45;;;;;;;23.71;52.53;101587.81;5030965;28;20053;-33
2023/08/14 03:48:07;;;;;;;3.95;2.70;;;;;;;23.71;52.81;101582.41;5032120;28;20115;-33
2023/08/14 03:50:34;;;;;;;3.45;2.35;;;;;;;23.70;52.16;101586.13;5025780;28;20052;-33
2023/08/14 03:53:00;;;;;;;4.20;2.30;;;;;;;23.69;52.79;101584.47;5028069;28;20321;-33
2023/08/14 03:55:27;;;;;;;3.50;2.60;;;;;;;23.69;52.20;101581.75;5028236;28;20488;-33
2023/08/14 03:57:56;;;;;;;5.97;2.88;;;;;;;23.69;52.40;101579.03;5028967;28;20053;-33
2023/08/14 04:00:22;;;;;;;6.45;3.08;;;;;;;23.67;52.85;101587.31;5028320;28;20054;-33
2023/08/14 04:02:49;;;;;;;5.10;2.47;;;;;;;23.67;52.86;101578.34;5027847;28;20103;-33
2023/08/14 04:05:16;;;;;;;7.47;2.83;;;;;;;23.67;52.46;101581.06;5025963;28;20095;-33
2023/08/14 04:07:42;;;;;;;5.00;2.97;;;;;;;23.66;52.69;101577.53;5022507;28;20104;-33
2023/08/14 04:10:09;;;;;;;4.82;3.00;;;;;;;23.65;52.86;101589.34;5032109;28;20055;-33
2023/08/14 04:12:36;;;;;;;6.55;3.10;;;;;;;23.64;52.58;101574.97;5028352;28;20491;-33
2023/08/14 04:15:16;;;;;;;3.83;2.85;;;;;;;23.64;52.48;101580.38;5031928;28;20060;-33
2023/08/14 04:17:43;;;;;;;11.27;3.55;;;;;;;23.66;52.41;101579.38;5025461;28;20057;-33
2023/08/14 04:20:11;;;;;;;4.60;2.90;;;;;;;23.64;52.97;101576.84;5028502;28;20438;-33
2023/08/14 04:22:38;;;;;;;5.45;2.88;;;;;;;23.63;52.24;101575.97;5030096;28;20045;-33
2023/08/14 04:25:05;;;;;;;5.43;3.20;;;;;;;23.63;52.86;101575.97;5031498;28;20089;-33
2023/08/14 04:27:31;;;;;;;7.60;3.92;;;;;;;23.62;52.91;101576.97;5029205;28;20116;-33
2023/08/14 04:29:58;;;;;;;6.32;3.10;;;;;;;23.62;52.49;101582.41;5029189;28;20068;-33
2023/08/14 04:32:24;;;;;;;4.82;2.85;;;;;;;23.62;52.35;101579.69;5031056;28;20333;-33
2023/08/14 04:34:51;;;;;;;7.00;3.00;;;;;;;23.62;52.39;101581.56;5031905;28;20429;-33
2023/08/14 04:37:18;;;;;;;3.50;2.30;;;;;;;23.62;52.55;101581.56;5032314;28;20057;-33
2023/08/14 04:39:44;;;;;;;5.90;3.25;;;;;;;23.61;52.71;101578.00;5029314;28;20052;-33
2023/08/14 04:42:11;;;;;;;5.82;2.95;;;;;;;23.61;52.62;101575.31;5032082;28;20057;-33
2023/08/14 04:44:37;;;;;;;6.13;2.92;;;;;;;23.61;52.49;101577.16;5030505;28;20045;-33
2023/08/14 04:47:04;;;;;;;6.30;3.13;;;;;;;23.62;52.54;101571.56;5030783;28;20045;-33
2023/08/14 04:49:31;;;;;;;5.32;2.95;;;;;;;23.60;52.44;101562.78;5031368;28;20135;-33
2023/08/14 04:51:58;;;;;;;5.40;2.97;;;;;;;23.61;52.32;101555.53;5031409;28;20076;-33
2023/08/14 04:54:26;;;;;;;5.55;3.33;;;;;;;23.61;52.88;101560.94;5028611;28;20057;-33
2023/08/14 04:56:53;;;;;;;5.60;3.05;;;;;;;23.63;52.93;101564.28;5033493;28;20062;-35
2023/08/14 04:59:19;;;;;;;5.97;3.92;;;;;;;23.63;52.77;101564.28;5031223;28;20049;-35
2023/08/14 05:01:46;;;;;;;4.85;2.70;;;;;;;23.64;52.29;101560.59;5032468;28;20440;-34
2023/08/14 05:04:13;;;;;;;4.80;2.40;;;;;;;23.64;52.27;101558.72;5031040;28;20136;-35
2023/08/14 05:06:39;;;;;;;6.63;2.78;;;;;;;23.64;52.28;101556.03;5029785;28;20045;-35
2023/08/14 05:09:06;;;;;;;3.95;2.67;;;;;;;23.65;52.55;101562.28;5032373;28;20053;-34
2023/08/14 05:11:51;;;;;;;4.82;3.10;;;;;;;23.66;52.29;101547.75;5032113;28;20057;-35
2023/08/14 05:14:18;;;;;;;3.90;2.78;;;;;;;23.66;52.10;101541.50;5031017;28;20060;-34
2023/08/14 05:16:46;;;;;;;4.95;2.47;;;;;;;23.66;52.30;101546.91;5027975;28;20046;-35
2023/08/14 05:19:13;;;;;;;4.28;2.53;;;;;;;23.64;52.45;101550.59;5025837;28;20076;-34
2023/08/14 05:21:39;;;;;;;5.70;3.10;;;;;;;23.66;52.72;101552.31;5029295;28;20429;-35
2023/08/14 05:24:06;;;;;;;3.83;2.50;;;;;;;23.67;52.08;101545.88;5029321;28;20715;-35
2023/08/14 05:26:33;;;;;;;4.78;2.35;;;;;;;23.66;52.37;101542.34;5029694;28;20046;-34
2023/08/14 05:29:00;;;;;;;3.90;2.30;;;;;;;23.68;52.16;101547.56;5028470;28;20136;-34
2023/08/14 05:31:26;;;;;;;4.78;2.55;;;;;;;23.68;52.70;101543.03;5030944;28;20103;-35
2023/08/14 05:33:53;;;;;;;4.05;2.53;;;;;;;23.68;52.71;101543.03;5027998;28;20080;-35
2023/08/14 05:36:19;;;;;;;3.22;2.20;;;;;;;23.68;52.21;101543.03;5026917;28;20046;-35
2023/08/14 05:38:46;;;;;;;5.03;2.67;;;;;;;23.70;52.29;101540.13;5027048;28;20049;-35
2023/08/14 05:41:13;;;;;;;4.15;2.20;;;;;;;23.69;52.29;101546.56;5029366;28;20069;-35
2023/08/14 05:43:39;;;;;;;11.18;2.15;;;;;;;23.70;52.15;101549.09;5029373;28;20045;-35
2023/08/14 05:46:06;;;;;;;4.50;2.95;;;;;;;23.70;52.19;101548.25;5026155;28;20683;-35
2023/08/14 05:48:33;;;;;;;4.50;2.65;;;;;;;23.71;52.32;101552.63;5030178;28;20085;-35
2023/08/14 05:50:59;;;;;;;4.35;2.70;;;;;;;23.70;52.36;101546.38;5027430;28;20392;-35
2023/08/14 05:53:26;;;;;;;6.13;2.47;;;;;;;23.71;52.39;101549.94;5027159;28;20050;-35
2023/08/14 05:55:52;;;;;;;4.53;2.60;;;;;;;23.71;52.25;101555.34;5023630;28;20099;-35
2023/08/14 05:58:19;;;;;;;3.05;2.20;;;;;;;23.72;52.29;101557.91;5025535;28;20096;-35
2023/08/14 06:00:46;;;;;;;4.22;2.70;;;;;;;23.70;52.00;101554.50;5025958;28;20515;-35
2023/08/14 06:03:12;;;;;;;4.93;2.55;;;;;;;23.72;52.49;101557.03;5027861;28;20053;-35
2023/08/14 06:05:45;;;;;;;5.10;2.80;;;;;;;23.71;52.60;101558.88;5024215;28;20141;-35
2023/08/14 06:08:12;;;;;;;4.78;2.80;;;;;;;23.73;52.55;101558.72;5028227;28;20041;-34
2023/08/14 06:10:38;;;;;;;5.13;2.88;;;;;;;23.73;52.45;101565.00;5026113;28;20049;-35
2023/08/14 06:13:07;;;;;;;5.32;2.97;;;;;;;23.74;52.46;101569.38;5029625;28;20049;-34
2023/08/14 06:15:33;;;;;;;5.70;2.97;;;;;;;23.75;52.37;101570.22;5025378;28;20050;-35
2023/08/14 06:18:00;;;;;;;5.47;2.95;;;;;;;23.75;52.24;101568.34;5024363;28;20099;-35
2023/08/14 06:20:28;;;;;;;5.15;2.90;;;;;;;23.75;52.68;101570.22;5027808;28;20049;-34
2023/08/14 06:22:55;;;;;;;6.00;2.72;;;;;;;23.77;51.95;101576.31;5025365;28;20049;-34
2023/08/14 06:25:22;;;;;;;5.68;3.15;;;;;;;23.76;51.82;101570.06;5026759;28;20127;-34
2023/08/14 06:27:48;;;;;;;3.92;2.47;;;;;;;23.78;52.23;101567.16;5030513;28;20408;-34
2023/08/14 06:30:15;;;;;;;4.82;3.00;;;;;;;23.78;51.94;101576.13;5029936;28;20045;-34
2023/08/14 06:32:41;;;;;;;5.40;2.85;;;;;;;23.79;52.58;101576.97;5034817;28;20045;-34
2023/08/14 06:35:09;;;;;;;4.13;2.90;;;;;;;23.79;52.01;101575.09;5031482;28;20045;-34
2023/08/14 06:37:35;;;;;;;4.43;2.45;;;;;;;23.80;52.58;101559.69;5026275;28;20497;-34
2023/08/14 06:40:03;;;;;;;3.72;2.67;;;;;;;23.82;52.63;101565.81;5030314;28;20046;-34
2023/08/14 06:42:30;;;;;;;4.70;2.65;;;;;;;23.82;51.91;101569.34;5028719;28;20425;-34
2023/08/14 06:44:57;;;;;;;4.68;3.10;;;;;;;23.83;52.55;101565.63;5027838;28;20435;-34
2023/08/14 06:47:24;;;;;;;3.75;2.42;;;;;;;23.84;52.01;101571.88;5027294;28;20178;-34
2023/08/14 06:49:50;;;;;;;4.20;2.40;;;;;;;23.85;52.21;101568.16;5030010;28;20056;-34
2023/08/14 06:52:17;;;;;;;4.05;2.50;;;;;;;23.86;51.83;101569.84;5028475;28;20077;-34
2023/08/14 06:54:44;;;;;;;4.18;2.67;;;;;;;23.86;52.14;101565.28;5024598;28;20069;-34
2023/08/14 06:57:10;;;;;;;4.75;2.65;;;;;;;23.86;52.08;101573.41;5027768;28;20345;-35
2023/08/14 06:59:37;;;;;;;5.88;2.33;;;;;;;23.88;52.46;101567.81;5026305;28;20429;-34
2023/08/14 07:02:03;;;;;;;5.22;2.67;;;;;;;23.87;52.34;101566.94;5026219;28;20130;-34
2023/08/14 07:04:30;;;;;;;4.15;2.30;;;;;;;23.90;51.89;101579.31;5024537;28;20113;-34
2023/08/14 07:06:57;;;;;;;5.30;2.55;;;;;;;23.88;52.23;101573.25;5024216;28;20050;-34
2023/08/14 07:09:23;;;;;;;3.85;2.60;;;;;;;23.91;51.85;101580.16;5024566;28;20057;-34
2023/08/14 07:11:50;;;;;;;4.82;2.78;;;;;;;23.89;51.59;101581.19;5025383;28;20479;-34
2023/08/14 07:14:16;;;;;;;4.47;2.75;;;;;;;23.89;51.87;101580.34;5027627;28;20104;-34
2023/08/14 07:16:43;;;;;;;5.68;2.55;;;;;;;23.89;52.00;101585.75;5025470;28;20045;-35
2023/08/14 07:19:10;;;;;;;3.53;2.10;;;;;;;23.91;52.31;101586.41;5022865;28;20045;-34
2023/08/14 07:21:36;;;;;;;4.40;2.50;;;;;;;23.92;51.92;101584.53;5024870;28;20050;-34
2023/08/14 07:24:03;;;;;;;6.20;2.72;;;;;;;23.92;51.79;101574.56;5027609;28;20053;-34
2023/08/14 07:26:30;;;;;;;4.60;2.47;;;;;;;23.93;52.18;101584.38;5028170;28;20049;-34
2023/08/14 07:28:56;;;;;;;4.40;2.72;;;;;;;23.95;51.80;101582.31;5022878;28;20049;-34
2023/08/14 07:31:24;;;;;;;5.57;2.20;;;;;;;23.95;51.74;101571.50;5025705;28;20047;-34
2023/08/14 07:33:50;;;;;;;4.30;2.13;;;;;;;23.96;51.92;101581.34;5028963;28;20053;-34
2023/08/14 07:36:17;;;;;;;3.58;1.92;;;;;;;23.98;51.48;101581.97;5027365;28;20099;-34
2023/08/14 07:38:44;;;;;;;7.10;2.35;;;;;;;23.98;52.14;101587.41;5025663;28;20061;-34
2023/08/14 07:41:10;;;;;;;3.95;2.40;;;;;;;23.99;51.88;101590.94;5028880;28;20057;-34
2023/08/14 07:43:37;;;;;;;3.92;2.35;;;;;;;23.99;51.70;101586.38;5025408;28;20123;-35
2023/08/14 07:46:03;;;;;;;4.55;2.35;;;;;;;24.00;51.60;101590.78;5026569;28;20096;-34
2023/08/14 07:48:30;;;;;;;4.10;1.98;;;;;;;24.02;51.72;101586.03;5024004;28;20060;-34
2023/08/14 07:50:57;;;;;;;4.55;2.33;;;;;;;24.02;51.63;101582.47;5024470;28;20111;-35
2023/08/14 07:53:23;;;;;;;6.38;2.13;;;;;;;24.02;51.54;101591.44;5023091;28;20575;-34
2023/08/14 07:55:50;;;;;;;4.13;1.92;;;;;;;24.03;51.43;101593.13;5029654;28;20142;-33
2023/08/14 07:58:18;;;;;;;4.50;2.15;;;;;;;24.03;51.50;101582.28;5028649;28;20388;-33
2023/08/14 08:00:45;;;;;;;4.53;2.03;;;;;;;24.04;51.36;101586.72;5029935;28;20103;-33
2023/08/14 08:03:12;;;;;;;3.80;1.73;;;;;;;24.04;51.07;101584.00;5024514;28;20055;-33
2023/08/14 08:05:38;;;;;;;4.28;1.73;;;;;;;24.05;50.98;101579.44;5027990;28;20135;-34
2023/08/14 08:08:05;;;;;;;3.95;2.33;;;;;;;24.04;51.52;101573.19;5027601;28;20045;-33
2023/08/14 08:10:32;;;;;;;2.80;1.50;;;;;;;24.05;51.15;101555.91;5029593;28;20111;-34
2023/08/14 08:12:59;;;;;;;3.97;1.70;;;;;;;24.05;51.35;101546.94;5025209;28;20117;-34
2023/08/14 08:15:25;;;;;;;4.10;1.70;;;;;;;24.06;50.95;101546.75;5025891;28;20057;-33
2023/08/14 08:17:52;;;;;;;2.40;1.52;;;;;;;24.06;50.98;101541.31;5023348;28;20488;-33
2023/08/14 08:20:19;;;;;;;3.85;1.55;;;;;;;24.06;51.14;101545.91;5025041;28;20060;-33
2023/08/14 08:22:45;;;;;;;3.45;1.55;;;;;;;24.06;51.08;101560.28;5031113;28;20049;-33
2023/08/14 08:25:12;;;;;;;3.08;1.38;;;;;;;24.08;51.07;101557.38;5030625;28;20352;-33
2023/08/14 08:27:39;;;;;;;3.58;1.65;;;;;;;24.08;51.13;101546.56;5028042;28;20045;-33
2023/08/14 08:30:06;;;;;;;5.10;1.77;;;;;;;24.09;51.51;101546.41;5031098;28;20050;-33
2023/08/14 08:32:32;;;;;;;2.45;1.55;;;;;;;24.08;51.03;101542.00;5030276;28;20073;-34
2023/08/14 08:34:59;;;;;;;2.35;1.45;;;;;;;24.09;51.15;101540.97;5031909;28;20055;-33
2023/08/14 08:37:26;;;;;;;5.95;1.77;;;;;;;24.10;50.79;101539.13;5030176;28;20106;-33
2023/08/14 08:39:52;;;;;;;3.92;1.40;;;;;;;24.10;50.66;101537.25;5030431;28;20053;-33
2023/08/14 08:42:19;;;;;;;4.15;1.50;;;;;;;24.10;51.21;101531.81;5030975;28;20452;-33
2023/08/14 08:44:49;;;;;;;3.17;1.77;;;;;;;24.13;51.12;101538.75;5030074;28;20434;-33
2023/08/14 08:47:22;;;;;;;1.80;1.10;;;;;;;24.13;51.33;101534.19;5025943;28;20481;-33
2023/08/14 08:49:49;;;;;;;1.77;1.23;;;;;;;24.15;50.95;101539.41;5029100;28;20054;-33
2023/08/14 08:52:17;;;;;;;4.03;1.52;;;;;;;24.16;50.98;101534.84;5028702;28;20484;-33
2023/08/14 08:54:44;;;;;;;3.55;1.55;;;;;;;24.17;50.72;101534.69;5031075;28;20413;-33
2023/08/14 08:57:11;;;;;;;2.63;1.60;;;;;;;24.18;51.01;101536.34;5030792;28;20045;-33
2023/08/14 08:59:40;;;;;;;2.72;1.50;;;;;;;24.19;51.41;101529.06;5028070;28;20060;-34
2023/08/14 09:02:08;;;;;;;3.60;1.52;;;;;;;24.19;51.26;101546.16;5031829;28;20467;-33
2023/08/14 09:04:34;;;;;;;3.00;1.80;;;;;;;24.20;51.30;101538.88;5031682;28;20053;-33
2023/08/14 09:07:01;;;;;;;3.58;1.67;;;;;;;24.21;50.91;101540.59;5023932;28;20045;-34
2023/08/14 09:09:28;;;;;;;3.83;1.23;;;;;;;24.22;50.92;101545.81;5031424;28;20099;-33
2023/08/14 09:11:54;;;;;;;2.58;1.38;;;;;;;24.24;51.00;101551.03;5031672;28;20154;-33
2023/08/14 09:14:22;;;;;;;4.38;1.60;;;;;;;24.25;50.80;101531.09;5031877;28;20045;-33
2023/08/14 09:16:53;;;;;;;2.35;1.20;;;;;;;24.25;51.44;101540.06;5030671;28;20053;-33
2023/08/14 09:19:20;;;;;;;3.30;1.90;;;;;;;24.28;51.00;101544.25;5030021;28;20053;-34
2023/08/14 09:21:47;;;;;;;3.60;1.60;;;;;;;24.28;51.13;101544.25;5023818;28;20048;-33
2023/08/14 09:24:15;;;;;;;3.25;1.75;;;;;;;24.30;50.71;101539.50;5029998;28;20388;-34
2023/08/14 09:26:44;;;;;;;3.67;1.45;;;;;;;24.31;51.06;101541.19;5029644;28;20369;-34
2023/08/14 09:29:13;;;;;;;2.30;1.23;;;;;;;24.33;50.91;101531.03;5029272;28;20077;-34
2023/08/14 09:31:44;;;;;;;2.17;1.50;;;;;;;24.35;51.43;101537.94;5029813;28;20429;-34
2023/08/14 09:34:19;;;;;;;2.45;1.25;;;;;;;24.37;50.63;101532.38;5029842;28;20060;-34
2023/08/14 09:36:47;;;;;;;2.97;1.67;;;;;;;24.40;50.85;101529.31;5027176;28;20369;-34
2023/08/14 09:39:16;;;;;;;2.53;1.30;;;;;;;24.43;50.87;101522.69;5028194;28;20049;-34
2023/08/14 09:41:48;;;;;;;2.10;1.25;;;;;;;24.46;50.90;101527.75;5027143;28;20050;-34
2023/08/14 09:44:18;;;;;;;2.85;1.30;;;;;;;24.51;50.98;101525.34;5029282;28;20050;-34
2023/08/14 09:46:45;;;;;;;3.83;1.25;;;;;;;24.54;50.92;101525.84;5026871;28;20083;-34
2023/08/14 09:49:13;;;;;;;2.10;1.13;;;;;;;24.60;51.20;101513.41;5031752;28;20073;-34
2023/08/14 09:51:39;;;;;;;4.00;1.42;;;;;;;24.65;51.04;101510.19;5024797;28;20041;-34
2023/08/14 09:54:08;;;;;;;5.45;1.65;;;;;;;24.71;50.81;101509.44;5026505;28;20167;-34
2023/08/14 09:56:35;;;;;;;3.35;1.50;;;;;;;24.76;51.08;101499.72;5027589;28;20048;-34
2023/08/14 09:59:02;;;;;;;3.33;0.98;;;;;;;24.82;50.93;101493.59;5030709;28;20049;-34
2023/08/14 10:01:29;;;;;;;3.20;1.15;;;;;;;24.87;51.23;101499.28;5027968;28;20061;-34
2023/08/14 10:03:56;;;;;;;3.72;1.20;;;;;;;24.93;50.72;101508.59;5028628;28;20064;-34
2023/08/14 10:06:25;;;;;;;4.63;1.40;;;;;;;24.98;50.74;101497.19;5026321;28;20107;-34
2023/08/14 10:08:56;;;;;;;4.05;1.40;;;;;;;25.04;50.85;101491.00;5027821;28;20056;-34
2023/08/14 10:11:28;;;;;;;3.30;1.10;;;;;;;25.09;50.66;101488.63;5026319;28;20080;-34
2023/08/14 10:14:00;;;;;;;1.98;1.00;;;;;;;25.15;50.62;101492.47;5026720;28;20136;-34
2023/08/14 10:16:31;;;;;;;4.20;1.40;;;;;;;25.16;51.00;101492.28;5027421;28;20373;-34
2023/08/14 10:19:03;;;;;;;3.85;1.08;;;;;;;25.19;50.59;101485.66;5025387;28;20203;-34
2023/08/14 10:21:34;;;;;;;2.20;1.23;;;;;;;25.22;50.51;101488.00;5027211;28;20081;-34
2023/08/14 10:24:05;;;;;;;3.33;1.27;;;;;;;25.28;50.62;101481.81;5029916;28;20061;-34
2023/08/14 10:26:33;;;;;;;5.20;1.58;;;;;;;25.31;50.41;101485.00;5026816;28;20051;-34
2023/08/14 10:29:00;;;;;;;3.38;1.15;;;;;;;25.35;50.54;101480.03;5030555;28;20132;-34
2023/08/14 10:31:28;;;;;;;2.53;1.10;;;;;;;25.38;50.30;101487.81;5028926;28;20099;-34
2023/08/14 10:33:56;;;;;;;1.83;1.00;;;;;;;25.43;50.38;101479.09;5031239;28;20061;-34
2023/08/14 10:36:26;;;;;;;4.07;1.27;;;;;;;25.43;50.31;101479.94;5027495;28;20116;-34
2023/08/14 10:38:53;;;;;;;3.28;1.38;;;;;;;25.48;50.45;101484.81;5030901;28;20049;-34
2023/08/14 10:41:34;;;;;;;3.40;1.25;;;;;;;25.50;50.33;101478.16;5025218;28;20124;-34
2023/08/14 10:44:07;;;;;;;2.55;1.05;;;;;;;25.53;50.30;101475.09;5032085;28;20073;-34
2023/08/14 10:46:36;;;;;;;3.17;1.13;;;;;;;25.57;50.16;101473.69;5028596;28;20053;-34
2023/08/14 10:49:03;;;;;;;4.50;1.40;;;;;;;25.59;50.01;101468.88;5030308;28;20337;-34
2023/08/14 10:51:31;;;;;;;2.58;0.98;;;;;;;25.62;50.24;101475.00;5030184;28;20327;-34
2023/08/14 10:54:08;;;;;;;2.38;0.98;;;;;;;25.63;50.20;101479.38;5028673;28;20091;-34
2023/08/14 10:56:42;;;;;;;2.88;1.13;;;;;;;25.65;49.90;101477.31;5028269;28;20045;-34
2023/08/14 10:59:28;;;;;;;3.05;1.08;;;;;;;25.66;50.01;101479.00;5025108;28;20041;-34
2023/08/14 11:02:10;;;;;;;1.63;1.00;;;;;;;25.69;49.82;101467.75;5026763;28;20495;-35
2023/08/14 11:05:11;;;;;;;2.67;0.90;;;;;;;25.71;49.75;101461.09;5029906;28;20045;-34
2023/08/14 11:07:38;;;;;;;2.20;1.10;;;;;;;25.76;49.47;101466.81;5028104;28;20045;-34
2023/08/14 11:10:05;;;;;;;4.78;1.60;;;;;;;25.79;49.67;101466.47;5024845;28;20396;-34
2023/08/14 11:12:32;;;;;;;3.08;1.15;;;;;;;25.81;49.56;101466.28;5027485;28;20041;-34
2023/08/14 11:15:00;;;;;;;3.25;1.30;;;;;;;25.84;49.66;101465.88;5027040;28;20056;-34
2023/08/14 11:17:27;;;;;;;3.22;1.00;;;;;;;25.85;49.48;101464.88;5029653;28;20041;-34
2023/08/14 11:19:54;;;;;;;2.72;0.85;;;;;;;25.86;49.48;101466.56;5026174;28;20330;-34
2023/08/14 11:22:24;;;;;;;2.95;1.30;;;;;;;25.90;49.33;101469.72;5026752;28;20064;-34
2023/08/14 11:24:51;;;;;;;4.75;1.42;;;;;;;25.93;49.41;101453.91;5026861;28;20119;-35
2023/08/14 11:27:17;;;;;;;4.38;1.00;;;;;;;25.93;49.25;101456.63;5025769;28;20064;-34